MET'MAP v2.0
soon released !

Expected late october,
this new version will be
more efficient, smarter,
and hosted on a brand new
server x3 powerfull...
...and still free !


Not compatible ?
Try the mobile version !

LOG IN : | Subscribe | Disclaimer | Who is Orbifly ? |
ICAO code :

TAF - HEMM Mersa Matruh - 20 Feb 2020 11:24 UTC - Data Source NOAA   


- Airport Elevation : 94 ft
- IATA code : MUH
- No reported NOTAMs.


HEMM - Mersa Matruh

Latest METAR recorded : 2015/08/11 08:00 HEMM 110800Z 35007KT CAVOK 30/26 Q1013 NOSIG
TAF TAF HEMM
Valid from the 20 at 06:00 until the 21 at 12:00 UTC


200500Z 2006/2112 25014KT 9999 SCT020

Source NOAA


MET'MAP, your aeronautical weather chart ! - Copyright ORBIFLY December 2007

Programming & Development : Alexandra Zaïnal
Co-Developer : Marc-Olivier Méhu
Technical & hardware support : Manuel Goepfert
Concept & Financing : Baudouin d'Aumeries